Decoded Metar for KS32 ( in ) (IATA:) | Meteo·Mobile Aviation Weather
aviador You're here:

KS32 Decoded Metar

in
Report Time2019-02-20 20:15:00
UTC Time2019-02-20 20:28:38
Flight Rules ifr IFR
Wind030° at 15 kt
W.Rank030° ranks 22
Current wind is above 030° avg. (10.3)
Visibility2816 m
Phenomena:Light Snow
Clouds:N/A
Expected CloudBase > 400 ft AGL from Temp-Dew spread
Ceiling700 ft
Temp-9°C
Dew Point-10°C (93% RH)
AAT-17.5°C
QNH1003 hPa
Raw Report
KS32 202015Z AUTO 03015KT 1 3/4SM -SN VV007 M09/M10 A2961 RMK
AO2=

Extra information for KS32:More info

Social comments